sensor_id;sensor_type;location;lat;lon;timestamp;pressure;altitude;pressure_sealevel;temperature;humidity
9249;BME280;4660;41.768;26.198;2023-07-29T00:01:51;100571.22;;;20.96;100.00
9249;BME280;4660;41.768;26.198;2023-07-29T00:04:19;100591.84;;;20.98;100.00
9249;BME280;4660;41.768;26.198;2023-07-29T00:06:45;100590.38;;;21.02;100.00
9249;BME280;4660;41.768;26.198;2023-07-29T00:09:11;100590.16;;;20.97;100.00
9249;BME280;4660;41.768;26.198;2023-07-29T00:11:36;100592.69;;;20.92;100.00
9249;BME280;4660;41.768;26.198;2023-07-29T00:14:02;100580.06;;;20.71;100.00
9249;BME280;4660;41.768;26.198;2023-07-29T00:16:27;100584.28;;;20.60;100.00
9249;BME280;4660;41.768;26.198;2023-07-29T00:18:53;100588.94;;;20.67;100.00
9249;BME280;4660;41.768;26.198;2023-07-29T00:21:18;100591.88;;;20.65;100.00
9249;BME280;4660;41.768;26.198;2023-07-29T00:23:45;100588.50;;;20.70;100.00
9249;BME280;4660;41.768;26.198;2023-07-29T00:26:10;100591.88;;;20.72;100.00
9249;BME280;4660;41.768;26.198;2023-07-29T00:28:36;100580.50;;;20.61;100.00
9249;BME280;4660;41.768;26.198;2023-07-29T00:31:02;100579.66;;;20.68;100.00
9249;BME280;4660;41.768;26.198;2023-07-29T00:33:27;100590.59;;;20.61;100.00
9249;BME280;4660;41.768;26.198;2023-07-29T00:35:53;100588.91;;;20.60;100.00
9249;BME280;4660;41.768;26.198;2023-07-29T00:38:18;100591.66;;;20.60;100.00
9249;BME280;4660;41.768;26.198;2023-07-29T00:40:44;100584.50;;;20.59;100.00
9249;BME280;4660;41.768;26.198;2023-07-29T00:43:09;100584.28;;;20.54;100.00
9249;BME280;4660;41.768;26.198;2023-07-29T00:45:35;100581.34;;;20.55;100.00
9249;BME280;4660;41.768;26.198;2023-07-29T00:48:02;100567.44;;;20.44;100.00
9249;BME280;4660;41.768;26.198;2023-07-29T00:50:30;100576.66;;;20.43;100.00
9249;BME280;4660;41.768;26.198;2023-07-29T00:52:56;100591.88;;;20.52;100.00
9249;BME280;4660;41.768;26.198;2023-07-29T00:55:23;100584.06;;;20.49;100.00
9249;BME280;4660;41.768;26.198;2023-07-29T00:57:48;100581.13;;;20.44;100.00
9249;BME280;4660;41.768;26.198;2023-07-29T01:00:17;100573.50;;;20.26;100.00
9249;BME280;4660;41.768;26.198;2023-07-29T01:02:43;100565.31;;;20.32;100.00
9249;BME280;4660;41.768;26.198;2023-07-29T01:05:09;100578.75;;;20.21;100.00
9249;BME280;4660;41.768;26.198;2023-07-29T01:07:49;100574.97;;;20.35;100.00
9249;BME280;4660;41.768;26.198;2023-07-29T01:10:51;100578.56;;;20.35;100.00
9249;BME280;4660;41.768;26.198;2023-07-29T01:13:25;100575.19;;;20.33;100.00
9249;BME280;4660;41.768;26.198;2023-07-29T01:16:14;100568.84;;;20.06;100.00
9249;BME280;4660;41.768;26.198;2023-07-29T01:18:45;100574.59;;;20.38;100.00
9249;BME280;4660;41.768;26.198;2023-07-29T01:21:13;100572.28;;;20.48;100.00
9249;BME280;4660;41.768;26.198;2023-07-29T01:23:39;100575.22;;;20.40;100.00
9249;BME280;4660;41.768;26.198;2023-07-29T01:26:04;100553.31;;;20.14;100.00
9249;BME280;4660;41.768;26.198;2023-07-29T01:28:30;100560.47;;;20.21;100.00
9249;BME280;4660;41.768;26.198;2023-07-29T01:33:58;100563.41;;;20.13;100.00
9249;BME280;4660;41.768;26.198;2023-07-29T01:36:28;100574.97;;;20.15;100.00
9249;BME280;4660;41.768;26.198;2023-07-29T01:38:54;100566.75;;;19.95;100.00
9249;BME280;4660;41.768;26.198;2023-07-29T01:41:22;100566.13;;;19.93;100.00
9249;BME280;4660;41.768;26.198;2023-07-29T01:43:48;100563.56;;;19.92;100.00
9249;BME280;4660;41.768;26.198;2023-07-29T01:46:14;100567.78;;;19.94;100.00
9249;BME280;4660;41.768;26.198;2023-07-29T01:48:40;100575.53;;;19.84;100.00
9249;BME280;4660;41.768;26.198;2023-07-29T01:51:07;100570.66;;;19.73;100.00
9249;BME280;4660;41.768;26.198;2023-07-29T01:53:33;100574.69;;;19.90;100.00
9249;BME280;4660;41.768;26.198;2023-07-29T01:55:59;100567.75;;;19.81;100.00
9249;BME280;4660;41.768;26.198;2023-07-29T01:58:24;100574.44;;;19.78;100.00
9249;BME280;4660;41.768;26.198;2023-07-29T02:00:50;100574.06;;;19.88;100.00
9249;BME280;4660;41.768;26.198;2023-07-29T02:03:16;100577.81;;;19.74;100.00
9249;BME280;4660;41.768;26.198;2023-07-29T02:05:42;100581.75;;;19.58;100.00
9249;BME280;4660;41.768;26.198;2023-07-29T02:08:09;100577.66;;;19.47;100.00
9249;BME280;4660;41.768;26.198;2023-07-29T02:10:35;100579.34;;;19.48;100.00
9249;BME280;4660;41.768;26.198;2023-07-29T02:13:00;100586.06;;;19.46;100.00
9249;BME280;4660;41.768;26.198;2023-07-29T02:15:25;100583.41;;;19.59;100.00
9249;BME280;4660;41.768;26.198;2023-07-29T02:17:51;100575.81;;;19.55;100.00
9249;BME280;4660;41.768;26.198;2023-07-29T02:20:17;100586.78;;;19.61;100.00
9249;BME280;4660;41.768;26.198;2023-07-29T02:22:43;100588.09;;;19.72;100.00
9249;BME280;4660;41.768;26.198;2023-07-29T02:25:08;100585.66;;;19.56;100.00
9249;BME280;4660;41.768;26.198;2023-07-29T02:27:35;100592.09;;;19.76;100.00
9249;BME280;4660;41.768;26.198;2023-07-29T02:30:01;100583.63;;;19.64;100.00
9249;BME280;4660;41.768;26.198;2023-07-29T02:32:27;100599.38;;;19.62;100.00
9249;BME280;4660;41.768;26.198;2023-07-29T02:34:53;100601.91;;;19.64;100.00
9249;BME280;4660;41.768;26.198;2023-07-29T02:37:18;100594.66;;;19.49;100.00
9249;BME280;4660;41.768;26.198;2023-07-29T02:39:44;100592.81;;;19.57;100.00
9249;BME280;4660;41.768;26.198;2023-07-29T02:42:10;100600.91;;;19.37;100.00
9249;BME280;4660;41.768;26.198;2023-07-29T02:44:35;100603.16;;;19.27;100.00
9249;BME280;4660;41.768;26.198;2023-07-29T02:47:01;100598.28;;;19.15;100.00
9249;BME280;4660;41.768;26.198;2023-07-29T02:49:26;100590.75;;;19.24;100.00
9249;BME280;4660;41.768;26.198;2023-07-29T02:51:52;100593.88;;;19.21;100.00
9249;BME280;4660;41.768;26.198;2023-07-29T02:54:17;100597.97;;;19.04;100.00
9249;BME280;4660;41.768;26.198;2023-07-29T02:56:42;100600.75;;;19.10;100.00
9249;BME280;4660;41.768;26.198;2023-07-29T02:59:08;100597.28;;;19.23;100.00
9249;BME280;4660;41.768;26.198;2023-07-29T03:01:33;100594.72;;;19.15;100.00
9249;BME280;4660;41.768;26.198;2023-07-29T03:03:59;100602.72;;;19.23;100.00
9249;BME280;4660;41.768;26.198;2023-07-29T03:06:24;100607.13;;;19.24;100.00
9249;BME280;4660;41.768;26.198;2023-07-29T03:08:50;100601.97;;;19.42;100.00
9249;BME280;4660;41.768;26.198;2023-07-29T03:11:16;100596.38;;;19.50;100.00
9249;BME280;4660;41.768;26.198;2023-07-29T03:13:42;100600.97;;;19.43;100.00
9249;BME280;4660;41.768;26.198;2023-07-29T03:18:35;100616.59;;;19.28;100.00
9249;BME280;4660;41.768;26.198;2023-07-29T03:21:02;100615.38;;;19.03;100.00
9249;BME280;4660;41.768;26.198;2023-07-29T03:23:28;100606.22;;;18.82;100.00
9249;BME280;4660;41.768;26.198;2023-07-29T03:25:58;100617.53;;;18.86;100.00
9249;BME280;4660;41.768;26.198;2023-07-29T03:28:25;100625.91;;;18.63;100.00
9249;BME280;4660;41.768;26.198;2023-07-29T03:30:53;100630.09;;;18.37;100.00
9249;BME280;4660;41.768;26.198;2023-07-29T03:33:18;100621.09;;;18.15;100.00
9249;BME280;4660;41.768;26.198;2023-07-29T03:35:44;100625.91;;;17.99;100.00
9249;BME280;4660;41.768;26.198;2023-07-29T03:38:10;100639.63;;;17.91;100.00
9249;BME280;4660;41.768;26.198;2023-07-29T03:40:40;100621.66;;;17.75;100.00
9249;BME280;4660;41.768;26.198;2023-07-29T03:43:06;100630.84;;;17.74;100.00
9249;BME280;4660;41.768;26.198;2023-07-29T03:45:32;100637.41;;;17.65;100.00
9249;BME280;4660;41.768;26.198;2023-07-29T03:47:57;100644.25;;;17.60;100.00
9249;BME280;4660;41.768;26.198;2023-07-29T03:50:23;100638.63;;;17.47;100.00
9249;BME280;4660;41.768;26.198;2023-07-29T03:52:49;100639.00;;;17.29;100.00
9249;BME280;4660;41.768;26.198;2023-07-29T03:55:15;100642.47;;;17.53;100.00
9249;BME280;4660;41.768;26.198;2023-07-29T03:57:41;100643.22;;;17.76;100.00
9249;BME280;4660;41.768;26.198;2023-07-29T04:00:07;100643.09;;;17.70;100.00
9249;BME280;4660;41.768;26.198;2023-07-29T04:02:32;100649.38;;;17.11;100.00
9249;BME280;4660;41.768;26.198;2023-07-29T04:04:58;100654.81;;;17.11;100.00
9249;BME280;4660;41.768;26.198;2023-07-29T04:07:23;100647.91;;;17.23;100.00
9249;BME280;4660;41.768;26.198;2023-07-29T04:09:49;100650.25;;;17.41;100.00
9249;BME280;4660;41.768;26.198;2023-07-29T04:12:15;100648.44;;;17.63;100.00
9249;BME280;4660;41.768;26.198;2023-07-29T04:14:41;100653.03;;;17.92;100.00
9249;BME280;4660;41.768;26.198;2023-07-29T04:17:07;100642.94;;;18.22;100.00
9249;BME280;4660;41.768;26.198;2023-07-29T04:19:33;100613.34;;;18.19;100.00
9249;BME280;4660;41.768;26.198;2023-07-29T04:21:58;100648.50;;;18.57;100.00
9249;BME280;4660;41.768;26.198;2023-07-29T04:24:24;100633.19;;;18.56;100.00
9249;BME280;4660;41.768;26.198;2023-07-29T04:26:50;100631.44;;;18.48;100.00
9249;BME280;4660;41.768;26.198;2023-07-29T04:29:15;100652.81;;;18.45;100.00
9249;BME280;4660;41.768;26.198;2023-07-29T04:31:41;100653.03;;;18.50;100.00
9249;BME280;4660;41.768;26.198;2023-07-29T04:34:06;100663.56;;;18.31;100.00
9249;BME280;4660;41.768;26.198;2023-07-29T04:36:32;100660.75;;;18.25;100.00
9249;BME280;4660;41.768;26.198;2023-07-29T04:38:58;100666.41;;;18.23;100.00
9249;BME280;4660;41.768;26.198;2023-07-29T04:41:23;100659.03;;;18.38;100.00
9249;BME280;4660;41.768;26.198;2023-07-29T04:43:49;100657.22;;;18.46;100.00
9249;BME280;4660;41.768;26.198;2023-07-29T04:46:15;100664.97;;;18.49;100.00
9249;BME280;4660;41.768;26.198;2023-07-29T04:48:40;100670.97;;;18.59;100.00
9249;BME280;4660;41.768;26.198;2023-07-29T04:51:06;100661.13;;;18.58;100.00
9249;BME280;4660;41.768;26.198;2023-07-29T04:53:32;100654.22;;;18.40;100.00
9249;BME280;4660;41.768;26.198;2023-07-29T04:55:57;100649.34;;;18.36;100.00
9249;BME280;4660;41.768;26.198;2023-07-29T04:58:23;100655.91;;;18.41;100.00
9249;BME280;4660;41.768;26.198;2023-07-29T05:00:48;100650.44;;;18.41;100.00
9249;BME280;4660;41.768;26.198;2023-07-29T05:03:13;100656.03;;;18.55;100.00
9249;BME280;4660;41.768;26.198;2023-07-29T05:05:39;100662.41;;;18.83;100.00
9249;BME280;4660;41.768;26.198;2023-07-29T05:08:04;100665.59;;;18.87;100.00
9249;BME280;4660;41.768;26.198;2023-07-29T05:10:30;100672.88;;;19.36;100.00
9249;BME280;4660;41.768;26.198;2023-07-29T05:12:55;100678.38;;;19.42;100.00
9249;BME280;4660;41.768;26.198;2023-07-29T05:15:21;100670.13;;;19.36;100.00
9249;BME280;4660;41.768;26.198;2023-07-29T05:17:46;100676.22;;;19.31;100.00
9249;BME280;4660;41.768;26.198;2023-07-29T05:20:12;100673.69;;;19.30;100.00
9249;BME280;4660;41.768;26.198;2023-07-29T05:22:37;100666.66;;;19.48;100.00
9249;BME280;4660;41.768;26.198;2023-07-29T05:25:03;100656.84;;;19.54;100.00
9249;BME280;4660;41.768;26.198;2023-07-29T05:27:29;100672.75;;;19.85;100.00
9249;BME280;4660;41.768;26.198;2023-07-29T05:29:55;100686.94;;;20.09;100.00
9249;BME280;4660;41.768;26.198;2023-07-29T05:32:21;100680.44;;;20.10;100.00
9249;BME280;4660;41.768;26.198;2023-07-29T05:34:46;100688.06;;;20.34;100.00
9249;BME280;4660;41.768;26.198;2023-07-29T05:37:12;100683.53;;;20.54;100.00
9249;BME280;4660;41.768;26.198;2023-07-29T05:39:37;100685.47;;;20.74;100.00
9249;BME280;4660;41.768;26.198;2023-07-29T05:42:03;100693.63;;;20.60;100.00
9249;BME280;4660;41.768;26.198;2023-07-29T05:44:28;100702.44;;;20.49;100.00
9249;BME280;4660;41.768;26.198;2023-07-29T05:46:56;100705.63;;;20.66;100.00
9249;BME280;4660;41.768;26.198;2023-07-29T05:49:22;100696.41;;;20.80;100.00
9249;BME280;4660;41.768;26.198;2023-07-29T05:51:47;100699.13;;;20.80;100.00
9249;BME280;4660;41.768;26.198;2023-07-29T05:54:13;100702.91;;;20.93;100.00
9249;BME280;4660;41.768;26.198;2023-07-29T05:56:39;100692.41;;;20.96;100.00
9249;BME280;4660;41.768;26.198;2023-07-29T05:59:04;100699.78;;;21.35;100.00
9249;BME280;4660;41.768;26.198;2023-07-29T06:01:30;100710.31;;;21.32;100.00
9249;BME280;4660;41.768;26.198;2023-07-29T06:03:55;100701.88;;;21.27;100.00
9249;BME280;4660;41.768;26.198;2023-07-29T06:06:21;100698.09;;;21.34;100.00
9249;BME280;4660;41.768;26.198;2023-07-29T06:08:49;100695.94;;;21.63;100.00
9249;BME280;4660;41.768;26.198;2023-07-29T06:11:15;100710.34;;;22.16;100.00
9249;BME280;4660;41.768;26.198;2023-07-29T06:13:40;100704.31;;;22.39;99.63
9249;BME280;4660;41.768;26.198;2023-07-29T06:16:06;100709.25;;;22.62;100.00
9249;BME280;4660;41.768;26.198;2023-07-29T06:18:31;100704.38;;;22.64;100.00
9249;BME280;4660;41.768;26.198;2023-07-29T06:20:57;100695.72;;;22.67;100.00
9249;BME280;4660;41.768;26.198;2023-07-29T06:23:22;100705.91;;;22.85;100.00
9249;BME280;4660;41.768;26.198;2023-07-29T06:25:48;100706.88;;;23.04;99.83
9249;BME280;4660;41.768;26.198;2023-07-29T06:28:13;100704.91;;;22.86;97.61
9249;BME280;4660;41.768;26.198;2023-07-29T06:30:39;100696.50;;;22.74;99.56
9249;BME280;4660;41.768;26.198;2023-07-29T06:33:05;100692.31;;;22.72;99.03
9249;BME280;4660;41.768;26.198;2023-07-29T06:35:30;100696.78;;;22.98;97.67
9249;BME280;4660;41.768;26.198;2023-07-29T06:37:56;100691.19;;;23.11;98.22
9249;BME280;4660;41.768;26.198;2023-07-29T06:40:21;100681.00;;;23.18;97.03
9249;BME280;4660;41.768;26.198;2023-07-29T06:42:47;100683.44;;;23.51;96.28
9249;BME280;4660;41.768;26.198;2023-07-29T06:45:12;100686.38;;;23.75;94.78
9249;BME280;4660;41.768;26.198;2023-07-29T06:47:38;100683.19;;;23.53;93.14
9249;BME280;4660;41.768;26.198;2023-07-29T06:50:04;100673.88;;;23.54;95.86
9249;BME280;4660;41.768;26.198;2023-07-29T06:52:29;100676.34;;;23.62;96.52
9249;BME280;4660;41.768;26.198;2023-07-29T06:54:55;100675.13;;;23.58;94.72
9249;BME280;4660;41.768;26.198;2023-07-29T06:57:21;100679.25;;;23.67;94.04
9249;BME280;4660;41.768;26.198;2023-07-29T06:59:46;100684.75;;;23.85;95.10
9249;BME280;4660;41.768;26.198;2023-07-29T07:02:11;100673.69;;;23.92;94.32
9249;BME280;4660;41.768;26.198;2023-07-29T07:04:37;100679.59;;;24.44;91.14
9249;BME280;4660;41.768;26.198;2023-07-29T07:07:03;100673.41;;;24.60;91.22
9249;BME280;4660;41.768;26.198;2023-07-29T07:09:29;100675.47;;;24.65;90.67
9249;BME280;4660;41.768;26.198;2023-07-29T07:11:54;100666.78;;;24.91;89.98
9249;BME280;4660;41.768;26.198;2023-07-29T07:14:20;100653.91;;;25.04;88.01
9249;BME280;4660;41.768;26.198;2023-07-29T07:16:45;100650.75;;;25.00;88.71
9249;BME280;4660;41.768;26.198;2023-07-29T07:19:11;100667.66;;;25.27;88.00
9249;BME280;4660;41.768;26.198;2023-07-29T07:21:36;100641.31;;;25.43;85.10
9249;BME280;4660;41.768;26.198;2023-07-29T07:24:02;100661.19;;;25.68;83.50
9249;BME280;4660;41.768;26.198;2023-07-29T07:26:28;100659.75;;;25.66;83.19
9249;BME280;4660;41.768;26.198;2023-07-29T07:28:53;100655.66;;;25.57;83.90
9249;BME280;4660;41.768;26.198;2023-07-29T07:31:19;100644.44;;;25.58;82.29
9249;BME280;4660;41.768;26.198;2023-07-29T07:33:45;100652.19;;;25.85;81.74
9249;BME280;4660;41.768;26.198;2023-07-29T07:36:10;100635.16;;;25.88;79.84
9249;BME280;4660;41.768;26.198;2023-07-29T07:38:35;100651.75;;;26.04;77.50
9249;BME280;4660;41.768;26.198;2023-07-29T07:41:02;100647.50;;;26.25;73.01
9249;BME280;4660;41.768;26.198;2023-07-29T07:43:27;100630.16;;;26.13;74.58
9249;BME280;4660;41.768;26.198;2023-07-29T07:46:00;100642.03;;;26.42;74.73
9249;BME280;4660;41.768;26.198;2023-07-29T07:48:27;100640.16;;;26.31;75.07
9249;BME280;4660;41.768;26.198;2023-07-29T07:50:52;100642.22;;;26.52;73.48
9249;BME280;4660;41.768;26.198;2023-07-29T07:53:18;100644.75;;;26.71;69.24
9249;BME280;4660;41.768;26.198;2023-07-29T07:55:45;100642.44;;;26.79;64.62
9249;BME280;4660;41.768;26.198;2023-07-29T07:58:10;100624.00;;;26.85;64.91
9249;BME280;4660;41.768;26.198;2023-07-29T08:00:36;100638.66;;;27.02;63.94
9249;BME280;4660;41.768;26.198;2023-07-29T08:03:03;100631.38;;;26.96;63.90
9249;BME280;4660;41.768;26.198;2023-07-29T08:05:29;100619.31;;;27.02;64.38
9249;BME280;4660;41.768;26.198;2023-07-29T08:07:54;100628.66;;;27.35;62.29
9249;BME280;4660;41.768;26.198;2023-07-29T08:10:20;100621.63;;;27.44;62.84
9249;BME280;4660;41.768;26.198;2023-07-29T08:12:45;100608.44;;;27.68;59.05
9249;BME280;4660;41.768;26.198;2023-07-29T08:15:11;100631.94;;;27.92;59.46
9249;BME280;4660;41.768;26.198;2023-07-29T08:17:37;100615.69;;;27.74;57.28
9249;BME280;4660;41.768;26.198;2023-07-29T08:20:02;100620.50;;;27.84;56.25
9249;BME280;4660;41.768;26.198;2023-07-29T08:22:28;100630.66;;;28.00;54.84
9249;BME280;4660;41.768;26.198;2023-07-29T08:24:53;100625.34;;;28.20;53.17
9249;BME280;4660;41.768;26.198;2023-07-29T08:27:19;100615.31;;;28.14;53.85
9249;BME280;4660;41.768;26.198;2023-07-29T08:29:44;100614.28;;;28.20;53.27
9249;BME280;4660;41.768;26.198;2023-07-29T08:32:10;100596.34;;;28.23;51.33
9249;BME280;4660;41.768;26.198;2023-07-29T08:34:35;100613.22;;;28.48;51.92
9249;BME280;4660;41.768;26.198;2023-07-29T08:37:01;100594.03;;;28.42;51.90
9249;BME280;4660;41.768;26.198;2023-07-29T08:39:27;100609.50;;;28.65;49.99
9249;BME280;4660;41.768;26.198;2023-07-29T08:42:08;100593.72;;;28.65;47.68
9249;BME280;4660;41.768;26.198;2023-07-29T08:44:42;100594.09;;;28.79;52.18
9249;BME280;4660;41.768;26.198;2023-07-29T08:47:09;100597.41;;;29.13;50.23
9249;BME280;4660;41.768;26.198;2023-07-29T08:49:36;100580.38;;;29.37;48.38
9249;BME280;4660;41.768;26.198;2023-07-29T08:52:02;100585.38;;;29.40;43.71
9249;BME280;4660;41.768;26.198;2023-07-29T08:54:29;100596.56;;;29.55;42.79
9249;BME280;4660;41.768;26.198;2023-07-29T08:56:54;100579.41;;;29.58;42.76
9249;BME280;4660;41.768;26.198;2023-07-29T08:59:20;100570.06;;;29.79;41.55
9249;BME280;4660;41.768;26.198;2023-07-29T09:01:47;100580.94;;;30.01;41.11
9249;BME280;4660;41.768;26.198;2023-07-29T09:04:12;100574.59;;;30.11;41.06
9249;BME280;4660;41.768;26.198;2023-07-29T09:06:39;100577.38;;;30.11;38.94
9249;BME280;4660;41.768;26.198;2023-07-29T09:09:07;100558.22;;;30.14;38.67
9249;BME280;4660;41.768;26.198;2023-07-29T09:11:33;100554.06;;;30.27;37.07
9249;BME280;4660;41.768;26.198;2023-07-29T09:13:59;100560.47;;;30.18;38.09
9249;BME280;4660;41.768;26.198;2023-07-29T09:16:27;100560.47;;;30.48;37.95
9249;BME280;4660;41.768;26.198;2023-07-29T09:18:55;100561.03;;;30.40;37.77
9249;BME280;4660;41.768;26.198;2023-07-29T09:21:26;100557.41;;;30.50;37.76
9249;BME280;4660;41.768;26.198;2023-07-29T09:23:54;100549.38;;;30.48;37.80
9249;BME280;4660;41.768;26.198;2023-07-29T09:26:27;100554.38;;;30.87;36.68
9249;BME280;4660;41.768;26.198;2023-07-29T09:28:55;100545.75;;;30.83;36.38
9249;BME280;4660;41.768;26.198;2023-07-29T09:31:25;100543.25;;;30.97;35.95
9249;BME280;4660;41.768;26.198;2023-07-29T09:34:00;100552.94;;;31.10;36.24
9249;BME280;4660;41.768;26.198;2023-07-29T09:36:27;100544.09;;;30.82;36.19
9249;BME280;4660;41.768;26.198;2023-07-29T09:38:56;100526.03;;;30.90;35.66
9249;BME280;4660;41.768;26.198;2023-07-29T09:41:23;100525.19;;;30.84;35.60
9249;BME280;4660;41.768;26.198;2023-07-29T09:43:55;100540.22;;;30.73;36.19
9249;BME280;4660;41.768;26.198;2023-07-29T09:46:24;100542.16;;;30.83;35.92
9249;BME280;4660;41.768;26.198;2023-07-29T09:48:53;100528.50;;;30.96;35.54
9249;BME280;4660;41.768;26.198;2023-07-29T09:51:18;100535.69;;;31.18;34.75
9249;BME280;4660;41.768;26.198;2023-07-29T09:53:46;100535.47;;;30.94;35.24
9249;BME280;4660;41.768;26.198;2023-07-29T09:56:14;100513.53;;;30.87;35.86
9249;BME280;4660;41.768;26.198;2023-07-29T09:58:42;100524.81;;;31.21;35.59
9249;BME280;4660;41.768;26.198;2023-07-29T10:01:08;100500.06;;;31.35;35.04
9249;BME280;4660;41.768;26.198;2023-07-29T10:03:35;100509.78;;;31.92;33.92
9249;BME280;4660;41.768;26.198;2023-07-29T10:06:05;100500.81;;;32.00;33.56
9249;BME280;4660;41.768;26.198;2023-07-29T10:08:32;100512.00;;;32.35;33.61
9249;BME280;4660;41.768;26.198;2023-07-29T10:11:11;100504.41;;;32.45;33.48
9249;BME280;4660;41.768;26.198;2023-07-29T10:13:37;100505.53;;;32.44;33.21
9249;BME280;4660;41.768;26.198;2023-07-29T10:16:04;100495.47;;;32.43;33.50
9249;BME280;4660;41.768;26.198;2023-07-29T10:18:33;100504.25;;;32.61;33.07
9249;BME280;4660;41.768;26.198;2023-07-29T10:21:00;100480.78;;;32.67;32.64
9249;BME280;4660;41.768;26.198;2023-07-29T10:23:27;100465.63;;;32.78;31.82
9249;BME280;4660;41.768;26.198;2023-07-29T10:26:08;100499.03;;;33.31;32.31
9249;BME280;4660;41.768;26.198;2023-07-29T10:28:40;100484.44;;;32.91;32.19
9249;BME280;4660;41.768;26.198;2023-07-29T10:31:06;100493.81;;;32.71;32.25
9249;BME280;4660;41.768;26.198;2023-07-29T10:33:33;100484.78;;;32.84;32.12
9249;BME280;4660;41.768;26.198;2023-07-29T10:35:59;100476.41;;;32.84;31.85
9249;BME280;4660;41.768;26.198;2023-07-29T10:38:26;100481.09;;;32.65;32.17
9249;BME280;4660;41.768;26.198;2023-07-29T10:40:53;100471.06;;;32.64;32.05
9249;BME280;4660;41.768;26.198;2023-07-29T10:43:25;100480.44;;;33.02;32.06
9249;BME280;4660;41.768;26.198;2023-07-29T10:45:51;100469.31;;;33.45;31.09
9249;BME280;4660;41.768;26.198;2023-07-29T10:48:41;100477.25;;;33.76;30.68
9249;BME280;4660;41.768;26.198;2023-07-29T10:54:11;100456.25;;;33.78;29.78
9249;BME280;4660;41.768;26.198;2023-07-29T10:56:43;100458.97;;;33.83;29.96
9249;BME280;4660;41.768;26.198;2023-07-29T11:01:39;100460.59;;;34.08;29.31
9249;BME280;4660;41.768;26.198;2023-07-29T11:12:39;100461.31;;;33.14;30.08
9249;BME280;4660;41.768;26.198;2023-07-29T11:15:25;100461.31;;;33.57;29.69
9249;BME280;4660;41.768;26.198;2023-07-29T11:18:01;100459.75;;;33.51;29.88
9249;BME280;4660;41.768;26.198;2023-07-29T11:20:29;100455.13;;;33.42;29.52
9249;BME280;4660;41.768;26.198;2023-07-29T11:22:57;100455.84;;;33.52;29.63
9249;BME280;4660;41.768;26.198;2023-07-29T11:25:24;100447.81;;;33.64;29.54
9249;BME280;4660;41.768;26.198;2023-07-29T11:27:54;100444.13;;;33.69;29.71
9249;BME280;4660;41.768;26.198;2023-07-29T11:30:20;100448.88;;;33.68;29.25
9249;BME280;4660;41.768;26.198;2023-07-29T11:32:47;100444.00;;;33.79;29.53
9249;BME280;4660;41.768;26.198;2023-07-29T11:35:17;100439.25;;;33.80;28.85
9249;BME280;4660;41.768;26.198;2023-07-29T11:37:45;100438.22;;;33.89;28.76
9249;BME280;4660;41.768;26.198;2023-07-29T11:40:15;100442.38;;;34.11;28.67
9249;BME280;4660;41.768;26.198;2023-07-29T11:42:42;100428.25;;;34.67;27.76
9249;BME280;4660;41.768;26.198;2023-07-29T11:45:07;100419.03;;;34.81;26.95
9249;BME280;4660;41.768;26.198;2023-07-29T11:47:34;100402.28;;;34.81;27.42
9249;BME280;4660;41.768;26.198;2023-07-29T11:50:05;100425.53;;;34.62;26.96
9249;BME280;4660;41.768;26.198;2023-07-29T11:52:32;100415.72;;;34.18;28.01
9249;BME280;4660;41.768;26.198;2023-07-29T11:54:59;100402.78;;;34.09;28.10
9249;BME280;4660;41.768;26.198;2023-07-29T11:57:25;100390.34;;;34.01;28.08
9249;BME280;4660;41.768;26.198;2023-07-29T11:59:52;100401.41;;;34.06;27.78
9249;BME280;4660;41.768;26.198;2023-07-29T12:02:20;100415.78;;;34.13;26.97
9249;BME280;4660;41.768;26.198;2023-07-29T12:04:47;100411.44;;;34.07;26.95
9249;BME280;4660;41.768;26.198;2023-07-29T12:07:14;100410.63;;;33.88;26.59
9249;BME280;4660;41.768;26.198;2023-07-29T12:09:41;100382.97;;;33.73;27.06
9249;BME280;4660;41.768;26.198;2023-07-29T12:12:09;100391.38;;;34.05;27.05
9249;BME280;4660;41.768;26.198;2023-07-29T12:14:34;100388.47;;;34.43;27.77
9249;BME280;4660;41.768;26.198;2023-07-29T12:17:05;100394.19;;;34.65;25.92
9249;BME280;4660;41.768;26.198;2023-07-29T12:19:35;100398.22;;;35.00;26.14
9249;BME280;4660;41.768;26.198;2023-07-29T12:22:05;100396.75;;;35.67;25.64
9249;BME280;4660;41.768;26.198;2023-07-29T12:24:35;100383.22;;;35.82;24.63
9249;BME280;4660;41.768;26.198;2023-07-29T12:27:01;100388.81;;;35.82;24.51
9249;BME280;4660;41.768;26.198;2023-07-29T12:29:27;100388.47;;;35.62;24.41
9249;BME280;4660;41.768;26.198;2023-07-29T12:32:01;100388.47;;;35.62;24.56
9249;BME280;4660;41.768;26.198;2023-07-29T12:34:28;100384.38;;;36.04;24.40
9249;BME280;4660;41.768;26.198;2023-07-29T12:36:54;100369.09;;;35.88;23.67
9249;BME280;4660;41.768;26.198;2023-07-29T12:41:51;100381.44;;;36.09;24.11
9249;BME280;4660;41.768;26.198;2023-07-29T12:44:17;100379.50;;;36.41;23.98
9249;BME280;4660;41.768;26.198;2023-07-29T12:46:43;100378.97;;;36.78;24.34
9249;BME280;4660;41.768;26.198;2023-07-29T12:49:09;100386.75;;;36.81;24.46
9249;BME280;4660;41.768;26.198;2023-07-29T12:51:35;100380.16;;;36.86;24.17
9249;BME280;4660;41.768;26.198;2023-07-29T12:54:04;100387.75;;;36.85;24.03
9249;BME280;4660;41.768;26.198;2023-07-29T12:56:30;100386.88;;;36.76;24.21
9249;BME280;4660;41.768;26.198;2023-07-29T12:58:57;100372.03;;;36.76;23.94
9249;BME280;4660;41.768;26.198;2023-07-29T13:01:24;100378.13;;;36.69;23.75
9249;BME280;4660;41.768;26.198;2023-07-29T13:03:49;100381.84;;;36.87;23.37
9249;BME280;4660;41.768;26.198;2023-07-29T13:06:15;100372.09;;;36.93;23.82
9249;BME280;4660;41.768;26.198;2023-07-29T13:08:41;100386.66;;;36.95;23.47
9249;BME280;4660;41.768;26.198;2023-07-29T13:11:07;100372.72;;;36.81;23.11
9249;BME280;4660;41.768;26.198;2023-07-29T13:13:34;100380.63;;;36.79;23.35
9249;BME280;4660;41.768;26.198;2023-07-29T13:16:01;100372.88;;;36.85;22.82